Flight Track Log - Related Links

Times and Time Zones

All times are in EDT time to prevent confusion due to time zone crossing. See the EJA364 flight status page for this flight to view local times or setup timezone preferences in your user account.

Time Position Orientation Groundspeed Altitude Reporting Facility
EDT Latitude Longitude Course Direction KTS MPH feet Rate Location/Type
Thu 01:33:07 PM 32.3431 -80.6500 18° North 213 245 9,800  Level Jacksonville Center
Thu 01:34:07 PM 32.4300 -80.6158 18° North 299 344 11,400 2,950 Climbing Jacksonville Center
Thu 01:35:07 PM 32.5211 -80.5817 18° North 341 392 15,700 2,250 Climbing Jacksonville Center
Thu 01:36:07 PM 32.6208 -80.5494 15° North 351 404 15,900 100 Climbing Jacksonville Center
Thu 01:37:00 PM 32.8633 -80.4511 16° North  Level FlightAware Approximate
Thu 01:37:07 PM 32.7225 -80.5122 17° North 369 425 15,900  Level Jacksonville Center
Thu 01:38:07 PM 32.8239 -80.4750 17° North 375 432 15,900  Level Jacksonville Center
Thu 01:39:07 PM 32.9278 -80.4375 17° North 375 432 15,900 50 Level Jacksonville Center
Thu 01:40:07 PM 33.0314 -80.4000 17° North 380 437 16,000 50 Climbing Jacksonville Center
Thu 01:41:07 PM 33.1328 -80.3625 17° North 385 443 16,000 -50 Level Jacksonville Center
Thu 01:42:07 PM 33.2342 -80.3247 17° North 375 432 15,900 -50 Descending Jacksonville Center
Thu 01:43:07 PM 33.3378 -80.2869 17° North 375 432 15,900  Level Jacksonville Center
Thu 01:44:07 PM 33.4292 -80.2544 17° North 375 432 15,900  Level Jacksonville Center
Thu 01:45:07 PM 33.5333 -80.2539 360° North 375 432 15,900  Level Jacksonville Center
Thu 01:46:07 PM 33.6378 -80.2633 356° North 365 420 15,900  Level Jacksonville Center
Thu 01:47:07 PM 33.7444 -80.2700 357° North 370 426 15,900  Level Jacksonville Center
Thu 01:48:07 PM 33.8489 -80.2794 356° North 370 426 15,900  Level Jacksonville Center
Thu 01:49:07 PM 33.9575 -80.2861 357° North 375 432 15,900  Level Jacksonville Center
Thu 01:50:07 PM 34.0664 -80.2956 356° North 380 437 15,900  Level Jacksonville Center
Thu 01:51:07 PM 34.1750 -80.3047 356° North 386 444 15,900  Level Jacksonville Center
Thu 01:52:07 PM 34.2836 -80.3117 357° North 386 444 15,900  Level Jacksonville Center
Thu 01:53:07 PM 34.3903 -80.3211 356° North 386 444 15,900 -1,212 Level Jacksonville Center
Thu 01:55:25 PM 34.6422 -80.3400 356° North 375 432 11,900 -1,515 Descending Atlanta Center
Thu 01:56:25 PM 34.7311 -80.3792 340° North 345 397 10,900 -738 Descending Atlanta Center
Thu 01:57:27 PM 34.7981 -80.4622 314° West 342 394 10,400 -422 Descending Atlanta Center
Thu 01:58:33 PM 34.8761 -80.5625 314° West 348 400 10,000 -180 Descending Atlanta Center
Thu 01:59:40 PM 34.9497 -80.6558 314° West 356 410 10,000  Level Atlanta Center
Thu 02:00:41 PM 35.0211 -80.7442 315° West 346 398 10,000  Level Atlanta Center
Thu 02:01:42 PM 35.0953 -80.7919 332° Northwest 293 337 10,000 -310 Level Atlanta Center
Thu 02:02:37 PM 35.1561 -80.8047 350° North 231 266 9,400 -1,046 Descending Atlanta Center
Thu 02:03:31 PM 35.2189 -80.8150 352° North 241 277 8,100 -1,438 Descending Atlanta Center
Thu 02:04:38 PM 35.2903 -80.8278 352° North 235 270 6,500 -1,433 Descending Atlanta Center

Login

Don't have an account? Register now (free) for customized features, flight alerts, and more!